Hlavní strana
METAR-TAF:

METAR-TAF

Letiště :

Stockholm-Arlanda, Švédsko

zeměpisná šířka: 59-39N, zeměpisná délka: 017-57E, výška: 38 m

Aktuální stav počasí

Zpráva byla vytvořena před 33 minutami, v 03:20 UTC
Severoseverozápadní vítr 10 kt
Teplota 3°C
Vlhkost vzduchu 93%
Tlak 1037 hPa
Viditelnost 10 km a více
Žádná oblačnost pod 1500 m, nevyskytují se cumulonimby.

METAR: ESSA 180320Z 34010KT CAVOK 03/02 Q1037 R01L/0///95 R08/0///95 R01R/0///95 NOSIG

Čas: 04:53 (03:53 UTC)

Předpověď počasí

Zpráva byla vytvořena před 4 hodinami a 23 minutami, v 23:30 UTC
Předpověď platná od 18 v 00 UTC do 18 v 24 UTC
Severní vítr 8 kt
Viditelnost 10 km a více
Žádná oblačnost pod 1500 m, nevyskytují se cumulonimby.
Pravděpodobnost 40%
od 18 v 06 UTC do 18 v 09 UTC
Oblačno až skoro zataženo ve výšce 1400 ft

TAF: ESSA 172330Z 1800/1824 01008KT CAVOK PROB40 1806/1809 BKN014

Stav a předpovědi počasí z více než 4 000 letišť (zprávy METAR a TAF).

Červené a žluté tečky na mapě představují dostupné meteorologické stanice.

Když kurzor umístíte na tečku, zobrazí se název stanice.

Pak kliknutím zobrazíte stav a předpověď počasí.

Chcete-li změnit mapu, kliknutím na zelené tlačítko se znaménkem +mapu přiblížíte, kliknutím na zelené tlačítko se znaménkem – mapu oddálíte a kliknutím na zelené šipky přejdete na sousední mapy.


METAR-TAF: